createdAt,value
2022-08-18T12:14:30.726Z,11.32
2022-08-18T12:17:01.468Z,4.93
2022-08-18T12:19:28.597Z,5.05
2022-08-18T12:21:57.045Z,7.00
2022-08-18T12:24:36.952Z,5.88
2022-08-18T12:27:13.268Z,5.85
2022-08-18T12:29:49.469Z,6.50
2022-08-18T12:32:18.143Z,5.80
2022-08-18T12:35:09.607Z,5.20
2022-08-18T12:37:59.008Z,4.07
2022-08-18T12:40:23.339Z,5.32
2022-08-18T12:42:50.122Z,4.63
2022-08-18T12:45:16.849Z,4.60
2022-08-18T12:47:43.585Z,4.72
2022-08-18T12:50:10.662Z,5.85
2022-08-18T12:52:37.402Z,4.03
2022-08-18T12:55:06.282Z,6.75
2022-08-18T12:57:33.466Z,4.60
2022-08-18T13:00:19.371Z,3.10
2022-08-18T13:02:46.200Z,4.85
2022-08-18T13:05:12.992Z,6.30
2022-08-18T13:07:39.767Z,6.40
2022-08-18T13:10:06.958Z,5.57
2022-08-18T13:12:33.862Z,3.67
2022-08-18T13:15:00.589Z,4.32
2022-08-18T13:17:29.155Z,5.10
2022-08-18T13:20:00.768Z,2.85
2022-08-18T13:22:32.904Z,4.43
2022-08-18T13:25:01.384Z,6.30
2022-08-18T13:27:33.061Z,3.60
2022-08-18T13:30:16.701Z,5.78
2022-08-18T13:32:58.590Z,4.50
2022-08-18T13:35:26.388Z,9.07
2022-08-18T13:37:56.952Z,4.45
2022-08-18T13:40:23.838Z,7.43
2022-08-18T13:42:57.123Z,5.97
2022-08-18T13:45:25.638Z,6.20
2022-08-18T13:47:52.855Z,7.50
2022-08-18T13:50:20.783Z,6.93
2022-08-18T13:52:57.468Z,5.93
2022-08-18T13:55:24.339Z,4.93
2022-08-18T13:57:51.302Z,4.53
2022-08-18T14:00:29.589Z,4.40
2022-08-18T14:02:57.969Z,3.92
2022-08-18T14:05:36.514Z,3.22
2022-08-18T14:08:11.411Z,4.10
2022-08-18T14:10:48.352Z,4.40
2022-08-18T14:13:20.814Z,7.55
2022-08-18T14:15:53.836Z,3.85
2022-08-18T14:18:28.731Z,3.17
2022-08-18T14:20:57.352Z,3.97
2022-08-18T14:23:31.907Z,5.45
2022-08-18T14:26:00.409Z,8.90
2022-08-18T14:28:28.287Z,4.68
2022-08-18T14:30:55.919Z,4.47
2022-08-18T14:33:49.695Z,2.55
2022-08-18T14:36:10.190Z,5.97
2022-08-18T14:38:36.968Z,3.10
2022-08-18T14:41:06.926Z,3.92
2022-08-18T14:44:00.506Z,6.07
2022-08-18T14:51:18.638Z,8.75
2022-08-18T14:53:50.187Z,6.35
2022-08-18T14:56:19.537Z,4.72
2022-08-18T14:58:48.684Z,4.30
2022-08-18T15:01:16.079Z,8.63
2022-08-18T15:03:44.510Z,5.60
2022-08-18T15:06:16.962Z,5.47
2022-08-18T15:08:47.003Z,3.88
2022-08-18T15:11:17.126Z,3.88
2022-08-18T15:13:45.319Z,7.70
2022-08-18T15:16:16.155Z,5.22
2022-08-18T15:18:43.598Z,3.58
2022-08-18T15:21:19.620Z,4.47
2022-08-18T15:23:57.531Z,4.80
2022-08-18T15:26:25.505Z,5.88
2022-08-18T15:28:52.712Z,7.10
2022-08-18T15:34:06.722Z,5.55
2022-08-18T15:36:39.481Z,7.40
2022-08-18T15:39:07.881Z,6.75
2022-08-18T15:41:44.241Z,5.50
2022-08-18T15:44:12.306Z,5.10
2022-08-18T15:46:39.012Z,5.68
2022-08-18T15:49:09.572Z,6.88
2022-08-18T15:51:41.184Z,3.95
2022-08-18T15:54:08.752Z,6.15
2022-08-18T15:56:38.390Z,5.07
2022-08-18T15:59:10.034Z,7.57
2022-08-18T16:01:39.558Z,4.50
2022-08-18T16:06:40.753Z,2.95
2022-08-18T16:09:08.444Z,6.65
2022-08-18T16:11:35.200Z,6.45
2022-08-18T16:14:01.925Z,4.70
2022-08-18T16:16:35.608Z,3.13
2022-08-18T16:19:06.717Z,4.35
2022-08-18T16:21:33.633Z,3.97
2022-08-18T16:24:00.381Z,5.22
2022-08-18T16:26:27.068Z,6.70
2022-08-18T16:28:53.803Z,4.28
2022-08-18T16:31:21.492Z,2.83
2022-08-18T16:33:48.215Z,4.43
2022-08-18T16:36:14.921Z,3.97
2022-08-18T16:38:41.824Z,6.68
2022-08-18T16:41:13.972Z,5.45
2022-08-18T16:43:41.376Z,5.28
2022-08-18T16:46:13.414Z,4.28
2022-08-18T16:48:40.482Z,4.53
2022-08-18T16:51:16.040Z,3.58
2022-08-18T16:53:42.787Z,4.78
2022-08-18T16:56:14.009Z,3.13
2022-08-18T16:58:40.917Z,4.37
2022-08-18T17:01:07.626Z,4.72
2022-08-18T17:03:34.389Z,5.95
2022-08-18T17:06:06.057Z,1.83
2022-08-18T17:08:33.210Z,1.35
2022-08-18T17:11:10.946Z,6.10
2022-08-18T17:13:38.138Z,4.20
2022-08-18T17:16:05.127Z,4.82
2022-08-18T17:18:31.870Z,3.20
2022-08-18T17:21:02.518Z,2.05
2022-08-18T17:23:29.885Z,2.63
2022-08-18T17:25:56.885Z,2.38
2022-08-18T17:28:49.647Z,3.17
2022-08-18T17:31:20.932Z,1.83
2022-08-18T17:33:47.697Z,5.97
2022-08-18T17:36:21.240Z,3.55
2022-08-18T17:38:55.295Z,3.00
2022-08-18T17:41:22.002Z,6.32
2022-08-18T17:43:48.908Z,1.63
2022-08-18T17:46:21.042Z,3.53
2022-08-18T17:48:55.550Z,7.07
2022-08-18T17:51:36.711Z,3.73
2022-08-18T17:54:09.338Z,2.83
2022-08-18T17:56:42.585Z,2.55
2022-08-18T17:59:45.548Z,5.45
2022-08-18T18:02:22.255Z,4.15
2022-08-18T18:05:00.110Z,3.45
2022-08-18T18:07:28.301Z,4.10
2022-08-18T18:09:57.706Z,4.30
2022-08-18T18:12:26.353Z,3.33
2022-08-18T18:14:53.122Z,3.83
2022-08-18T18:17:24.057Z,2.67
2022-08-18T18:19:54.308Z,3.75
2022-08-18T18:22:28.277Z,4.60
2022-08-18T18:25:00.041Z,3.30
2022-08-18T18:27:29.809Z,3.80
2022-08-18T18:30:28.252Z,2.38
2022-08-18T18:33:04.574Z,1.67
2022-08-18T18:35:54.343Z,4.18
2022-08-18T18:38:34.610Z,8.00
2022-08-18T18:41:13.353Z,7.78
2022-08-18T18:43:41.258Z,1.95
2022-08-18T18:46:25.995Z,4.38
2022-08-18T18:49:16.061Z,2.60
2022-08-18T18:51:49.107Z,4.80
2022-08-18T18:54:28.000Z,2.90
2022-08-18T18:56:57.855Z,2.05
2022-08-18T18:59:39.952Z,4.80
2022-08-18T19:02:37.996Z,4.60
2022-08-18T19:05:22.490Z,5.43
2022-08-18T19:08:06.038Z,4.10
2022-08-18T19:11:03.759Z,1.90
2022-08-18T19:13:35.097Z,4.13
2022-08-18T19:16:28.930Z,4.43
2022-08-18T19:19:37.139Z,2.45
2022-08-18T19:22:06.781Z,3.47
2022-08-18T19:24:57.865Z,1.98
2022-08-18T19:27:37.300Z,5.40
2022-08-18T19:30:08.843Z,1.48
2022-08-18T19:32:42.405Z,2.63
2022-08-18T19:35:12.581Z,2.28
2022-08-18T19:37:45.063Z,2.03
2022-08-18T19:40:28.779Z,0.95
2022-08-18T19:43:01.157Z,1.88
2022-08-18T19:48:18.731Z,4.72
2022-08-18T19:51:19.569Z,2.50
2022-08-18T19:53:55.395Z,2.78
2022-08-18T19:56:28.242Z,2.55
2022-08-18T19:59:21.645Z,1.90
2022-08-18T20:02:11.927Z,2.92
2022-08-18T20:05:05.549Z,1.05
2022-08-18T20:07:55.612Z,4.43
2022-08-18T20:10:43.610Z,0.80
2022-08-18T20:13:27.562Z,2.42
2022-08-18T20:16:03.518Z,2.35
2022-08-18T20:18:37.709Z,2.17
2022-08-18T20:21:16.725Z,2.50
2022-08-18T20:24:02.338Z,3.15
2022-08-18T20:26:35.599Z,1.15
2022-08-18T20:29:02.369Z,1.70
2022-08-18T20:32:01.332Z,2.50
2022-08-18T20:34:32.321Z,1.75
2022-08-18T20:37:00.206Z,3.13
2022-08-18T20:39:42.561Z,2.90
2022-08-18T20:42:21.343Z,1.40
2022-08-18T20:44:48.109Z,2.00
2022-08-18T20:47:42.460Z,1.67
2022-08-18T20:50:18.266Z,1.05
2022-08-18T20:53:07.715Z,0.52
2022-08-18T20:55:41.602Z,1.02
2022-08-18T20:58:12.504Z,0.90
2022-08-18T21:00:41.476Z,2.05
2022-08-18T21:03:16.905Z,1.98
2022-08-18T21:05:45.235Z,3.75
2022-08-18T21:08:15.137Z,0.60
2022-08-18T21:10:52.140Z,3.38
2022-08-18T21:13:42.274Z,1.05
2022-08-18T21:16:29.485Z,2.78
2022-08-18T21:19:17.219Z,1.13
2022-08-18T21:21:58.267Z,0.95
2022-08-18T21:24:30.850Z,3.13
2022-08-18T21:26:59.380Z,0.50
2022-08-18T21:29:26.343Z,1.35
2022-08-18T21:32:10.765Z,3.95
2022-08-18T21:34:44.402Z,2.83
2022-08-18T21:37:13.093Z,2.13
2022-08-18T21:39:57.473Z,2.33
2022-08-18T21:42:29.877Z,1.23
2022-08-18T21:47:32.565Z,1.75
2022-08-18T21:50:01.425Z,1.13
2022-08-18T21:52:29.509Z,0.82
2022-08-18T21:55:05.604Z,1.10
2022-08-18T21:57:59.673Z,0.65
2022-08-18T22:00:28.389Z,0.93
2022-08-18T22:03:23.810Z,1.15
2022-08-18T22:06:01.648Z,3.75
2022-08-18T22:08:30.978Z,0.77
2022-08-18T22:11:08.186Z,1.08
2022-08-18T22:13:46.478Z,2.55
2022-08-18T22:16:33.582Z,0.60
2022-08-18T22:19:06.488Z,1.85
2022-08-18T22:21:35.790Z,2.85
2022-08-18T22:24:08.181Z,0.60
2022-08-18T22:26:36.169Z,1.58
2022-08-18T22:29:05.955Z,0.88
2022-08-18T22:31:35.847Z,0.90
2022-08-18T22:34:12.310Z,1.67
2022-08-18T22:36:46.912Z,1.80
2022-08-18T22:39:14.372Z,0.70
2022-08-18T22:41:41.072Z,0.85
2022-08-18T22:44:07.833Z,0.73
2022-08-18T22:46:34.733Z,0.68
2022-08-18T22:49:01.466Z,2.70
2022-08-18T22:51:28.652Z,0.90
2022-08-18T22:53:55.394Z,0.60
2022-08-18T22:56:34.037Z,1.60
2022-08-18T22:59:00.951Z,0.40
2022-08-18T23:01:40.809Z,0.40
2022-08-18T23:04:07.768Z,0.40
2022-08-18T23:06:34.771Z,0.60
2022-08-18T23:09:01.640Z,0.60
2022-08-18T23:11:29.143Z,0.30
2022-08-18T23:13:56.032Z,1.35
2022-08-18T23:16:31.898Z,0.60
2022-08-18T23:19:00.038Z,0.70
2022-08-18T23:21:34.980Z,0.50
2022-08-18T23:24:04.298Z,0.30
2022-08-18T23:26:31.002Z,0.40
2022-08-18T23:28:57.832Z,0.85
2022-08-18T23:31:24.549Z,1.38
2022-08-18T23:33:51.294Z,2.15
2022-08-18T23:36:18.081Z,0.30
2022-08-18T23:38:44.823Z,0.75
2022-08-18T23:41:12.265Z,0.45
2022-08-18T23:43:39.034Z,0.50
2022-08-18T23:46:05.917Z,0.20
2022-08-18T23:48:32.619Z,0.63
2022-08-18T23:50:59.381Z,0.30
2022-08-18T23:53:26.088Z,0.40
2022-08-18T23:55:52.990Z,0.30
2022-08-18T23:58:19.692Z,0.40
